createdAt,value
2019-04-25T00:02:02.647Z,16.30
2019-04-25T00:04:31.641Z,16.30
2019-04-25T00:07:02.133Z,16.30
2019-04-25T00:09:32.699Z,16.30
2019-04-25T00:12:02.269Z,16.30
2019-04-25T00:14:32.633Z,16.30
2019-04-25T00:17:02.955Z,16.30
2019-04-25T00:19:31.848Z,16.30
2019-04-25T00:22:08.212Z,16.20
2019-04-25T00:24:39.597Z,16.20
2019-04-25T00:27:09.373Z,16.20
2019-04-25T00:29:38.376Z,16.20
2019-04-25T00:32:07.360Z,16.20
2019-04-25T00:34:36.250Z,16.20
2019-04-25T00:37:05.141Z,16.10
2019-04-25T00:39:34.748Z,16.10
2019-04-25T00:42:03.640Z,16.10
2019-04-25T00:44:32.632Z,16.00
2019-04-25T00:47:02.510Z,15.90
2019-04-25T00:49:32.297Z,15.90
2019-04-25T00:52:02.093Z,15.80
2019-04-25T00:54:31.677Z,15.80
2019-04-25T00:57:02.062Z,15.70
2019-04-25T00:59:35.503Z,15.60
2019-04-25T01:02:11.765Z,15.60
2019-04-25T01:04:43.737Z,15.50
2019-04-25T01:07:12.788Z,15.40
2019-04-25T01:09:42.296Z,15.40
2019-04-25T01:12:14.123Z,15.30
2019-04-25T01:14:43.080Z,15.30
2019-04-25T01:17:11.972Z,15.30
2019-04-25T01:19:40.860Z,15.10
2019-04-25T01:22:09.751Z,15.10
2019-04-25T01:24:39.212Z,15.00
2019-04-25T01:27:09.888Z,15.00
2019-04-25T01:29:38.884Z,14.90
2019-04-25T01:32:09.316Z,14.90
2019-04-25T01:34:40.542Z,14.80
2019-04-25T01:37:11.672Z,14.80
2019-04-25T01:39:45.198Z,14.80
2019-04-25T01:42:24.739Z,14.70
2019-04-25T01:44:56.544Z,14.70
2019-04-25T01:47:26.411Z,14.70
2019-04-25T01:49:55.555Z,14.70
2019-04-25T01:52:25.933Z,14.60
2019-04-25T01:54:55.935Z,14.60
2019-04-25T01:57:25.352Z,14.50
2019-04-25T01:59:56.286Z,14.50
2019-04-25T02:02:30.647Z,14.50
2019-04-25T02:05:05.142Z,14.60
2019-04-25T02:07:39.106Z,14.60
2019-04-25T02:10:08.843Z,14.60
2019-04-25T02:12:39.280Z,14.60
2019-04-25T02:15:08.936Z,14.60
2019-04-25T02:17:37.983Z,14.50
2019-04-25T02:20:07.732Z,14.50
2019-04-25T02:22:36.687Z,14.40
2019-04-25T02:25:06.757Z,14.40
2019-04-25T02:27:35.647Z,14.40
2019-04-25T02:30:07.452Z,14.30
2019-04-25T02:32:37.164Z,14.30
2019-04-25T02:35:09.902Z,14.30
2019-04-25T02:37:38.934Z,14.20
2019-04-25T02:40:09.407Z,14.30
2019-04-25T02:42:38.362Z,14.30
2019-04-25T02:45:28.342Z,14.30
2019-04-25T02:48:08.092Z,14.30
2019-04-25T02:50:38.588Z,14.20
2019-04-25T02:53:25.534Z,14.20
2019-04-25T02:55:56.244Z,14.20
2019-04-25T02:58:24.957Z,14.10
2019-04-25T03:01:03.346Z,14.10
2019-04-25T03:03:25.297Z,14.00
2019-04-25T03:05:54.881Z,14.00
2019-04-25T03:08:24.449Z,13.90
2019-04-25T03:10:54.438Z,13.90
2019-04-25T03:13:24.652Z,13.80
2019-04-25T03:15:55.703Z,13.80
2019-04-25T03:18:26.540Z,13.60
2019-04-25T03:21:01.290Z,13.50
2019-04-25T03:23:34.818Z,13.50
2019-04-25T03:26:05.831Z,13.50
2019-04-25T03:28:36.528Z,13.50
2019-04-25T03:31:11.299Z,13.50
2019-04-25T03:33:38.415Z,13.50
2019-04-25T03:36:09.228Z,13.50
2019-04-25T03:38:38.337Z,13.50
2019-04-25T03:41:07.230Z,13.50
2019-04-25T03:43:36.117Z,13.50
2019-04-25T03:46:06.178Z,13.40
2019-04-25T03:48:37.060Z,13.40
2019-04-25T03:51:06.856Z,13.30
2019-04-25T03:53:36.493Z,13.30
2019-04-25T03:56:07.261Z,13.30
2019-04-25T03:58:36.938Z,13.20
2019-04-25T04:01:07.982Z,13.10
2019-04-25T04:03:37.280Z,13.00
2019-04-25T04:06:07.682Z,13.10
2019-04-25T04:08:36.625Z,13.10
2019-04-25T04:11:07.411Z,13.10
2019-04-25T04:13:36.632Z,13.10
2019-04-25T04:16:06.431Z,13.10
2019-04-25T04:18:40.352Z,13.10
2019-04-25T04:21:29.007Z,13.10
2019-04-25T04:24:15.021Z,13.10
2019-04-25T04:26:46.248Z,13.10
2019-04-25T04:29:15.296Z,13.10
2019-04-25T04:31:44.947Z,13.10
2019-04-25T04:34:14.695Z,13.10
2019-04-25T04:36:46.536Z,13.10
2019-04-25T04:39:16.843Z,13.20
2019-04-25T04:41:45.425Z,13.10
2019-04-25T04:44:15.376Z,13.10
2019-04-25T04:46:44.846Z,13.20
2019-04-25T04:49:14.440Z,13.10
2019-04-25T04:51:44.411Z,13.20
2019-04-25T04:54:14.631Z,13.20
2019-04-25T04:56:44.402Z,13.20
2019-04-25T04:59:14.605Z,13.30
2019-04-25T05:02:03.317Z,13.40
2019-04-25T05:04:37.087Z,13.40
2019-04-25T05:07:25.307Z,13.50
2019-04-25T05:09:55.346Z,13.50
2019-04-25T05:12:24.238Z,13.50
2019-04-25T05:14:53.663Z,13.70
2019-04-25T05:17:23.735Z,13.80
2019-04-25T05:19:53.776Z,13.80
2019-04-25T05:22:24.281Z,13.90
2019-04-25T05:24:53.531Z,14.00
2019-04-25T05:27:35.743Z,14.10
2019-04-25T05:29:53.980Z,14.10
2019-04-25T05:32:25.115Z,14.20
2019-04-25T05:34:54.086Z,14.20
2019-04-25T05:37:24.114Z,14.30
2019-04-25T05:39:53.615Z,14.20
2019-04-25T05:42:27.516Z,14.30
2019-04-25T05:44:57.954Z,14.40
2019-04-25T05:47:27.226Z,14.40
2019-04-25T05:49:56.646Z,14.60
2019-04-25T05:52:26.125Z,14.60
2019-04-25T05:54:55.861Z,14.60
2019-04-25T05:57:24.989Z,14.70
2019-04-25T05:59:55.384Z,14.80
2019-04-25T06:02:25.359Z,14.90
2019-04-25T06:04:54.805Z,15.00
2019-04-25T06:07:25.420Z,15.00
2019-04-25T06:09:55.762Z,15.10
2019-04-25T06:12:27.006Z,15.20
2019-04-25T06:14:55.899Z,15.30
2019-04-25T06:17:34.204Z,15.40
2019-04-25T06:20:06.193Z,15.60
2019-04-25T06:22:53.284Z,15.70
2019-04-25T06:25:29.327Z,15.80
2019-04-25T06:27:59.252Z,15.90
2019-04-25T06:30:31.576Z,16.00
2019-04-25T06:33:01.142Z,16.10
2019-04-25T06:35:30.137Z,16.20
2019-04-25T06:37:59.128Z,16.30
2019-04-25T06:40:29.733Z,16.40
2019-04-25T06:42:58.752Z,16.60
2019-04-25T06:45:39.009Z,16.70
2019-04-25T06:48:09.538Z,16.80
2019-04-25T06:50:38.531Z,17.00
2019-04-25T06:53:08.065Z,17.20
2019-04-25T06:55:37.037Z,17.30
2019-04-25T06:58:11.709Z,17.40
2019-04-25T07:00:41.207Z,17.60
2019-04-25T07:03:07.593Z,17.70
2019-04-25T07:05:40.426Z,17.90
2019-04-25T07:08:07.013Z,18.10
2019-04-25T07:10:35.905Z,18.50
2019-04-25T07:13:05.513Z,20.30
2019-04-25T07:15:35.302Z,23.50
2019-04-25T07:18:04.934Z,26.10
2019-04-25T07:20:34.572Z,28.40
2019-04-25T07:23:05.274Z,30.10
2019-04-25T07:25:36.707Z,31.90
2019-04-25T07:28:23.883Z,32.90
2019-04-25T07:30:58.980Z,34.40
2019-04-25T07:33:35.925Z,35.20
2019-04-25T07:36:05.568Z,35.50
2019-04-25T07:38:35.019Z,36.20
2019-04-25T07:41:04.681Z,36.90
2019-04-25T07:43:34.125Z,37.40
2019-04-25T07:46:05.026Z,37.70
2019-04-25T07:48:36.751Z,38.00
2019-04-25T07:51:04.445Z,37.70
2019-04-25T07:53:34.812Z,37.60
2019-04-25T07:56:04.989Z,37.40
2019-04-25T07:58:49.311Z,37.60
2019-04-25T08:01:14.027Z,37.60
2019-04-25T08:03:43.905Z,37.60
2019-04-25T08:06:14.275Z,37.70
2019-04-25T08:08:43.664Z,37.90
2019-04-25T08:11:14.004Z,37.90
2019-04-25T08:13:48.320Z,37.90
2019-04-25T08:16:18.848Z,37.60
2019-04-25T08:18:48.456Z,37.80
2019-04-25T08:21:17.346Z,37.60
2019-04-25T08:23:46.180Z,37.60
2019-04-25T08:26:15.844Z,37.70
2019-04-25T08:28:54.367Z,38.00
2019-04-25T08:31:15.266Z,38.00
2019-04-25T08:33:46.535Z,37.90
2019-04-25T08:36:14.689Z,38.00
2019-04-25T08:38:44.689Z,38.00
2019-04-25T08:41:14.170Z,37.90
2019-04-25T08:43:43.684Z,38.00
2019-04-25T08:46:13.935Z,38.20
2019-04-25T08:49:02.413Z,38.40
2019-04-25T08:51:34.864Z,38.50
2019-04-25T08:54:23.538Z,38.30
2019-04-25T08:56:54.656Z,38.00
2019-04-25T08:59:47.204Z,38.20
2019-04-25T09:02:31.616Z,38.40
2019-04-25T09:05:16.068Z,38.40
2019-04-25T09:07:45.619Z,38.30
2019-04-25T09:10:15.242Z,38.30
2019-04-25T09:12:45.266Z,38.30
2019-04-25T09:15:16.473Z,38.40
2019-04-25T09:17:47.092Z,38.60
2019-04-25T09:20:17.352Z,38.60
2019-04-25T09:22:46.234Z,38.70
2019-04-25T09:25:15.837Z,38.70
2019-04-25T09:27:45.834Z,38.60
2019-04-25T09:30:16.820Z,38.60
2019-04-25T09:32:45.805Z,38.60
2019-04-25T09:35:15.501Z,38.50
2019-04-25T09:37:45.966Z,38.40
2019-04-25T09:40:17.378Z,38.40
2019-04-25T09:42:48.065Z,38.50
2019-04-25T09:45:37.611Z,38.40
2019-04-25T09:48:13.095Z,38.50
2019-04-25T09:50:44.186Z,38.20
2019-04-25T09:53:23.633Z,38.30
2019-04-25T09:55:48.276Z,38.10
2019-04-25T09:58:19.454Z,38.20
2019-04-25T10:00:49.982Z,38.10
2019-04-25T10:03:18.971Z,38.00
2019-04-25T10:05:47.861Z,38.00
2019-04-25T10:08:16.854Z,38.10
2019-04-25T10:10:46.681Z,37.90
2019-04-25T10:13:16.275Z,37.90
2019-04-25T10:15:54.553Z,37.90
2019-04-25T10:18:24.193Z,37.80
2019-04-25T10:20:54.272Z,37.60
2019-04-25T10:23:24.082Z,37.10
2019-04-25T10:25:53.930Z,36.60
2019-04-25T10:28:25.584Z,35.80
2019-04-25T10:30:55.554Z,34.80
2019-04-25T10:33:26.851Z,33.90
2019-04-25T10:35:59.595Z,33.20
2019-04-25T10:38:28.520Z,32.50
2019-04-25T10:40:58.370Z,31.90
2019-04-25T10:43:27.950Z,31.50
2019-04-25T10:45:57.584Z,31.00
2019-04-25T10:48:26.449Z,30.60
2019-04-25T10:50:55.699Z,30.40
2019-04-25T10:53:25.177Z,30.40
2019-04-25T10:55:54.759Z,30.30
2019-04-25T10:58:24.355Z,30.00
2019-04-25T11:00:54.897Z,29.80
2019-04-25T11:03:26.444Z,29.80
2019-04-25T11:05:57.784Z,29.70
2019-04-25T11:08:26.702Z,29.60
2019-04-25T11:10:55.581Z,29.70
2019-04-25T11:13:25.290Z,29.70
2019-04-25T11:15:55.701Z,29.60
2019-04-25T11:18:24.709Z,29.50
2019-04-25T11:20:54.960Z,29.40
2019-04-25T11:23:24.818Z,29.30
2019-04-25T11:25:54.221Z,29.20
2019-04-25T11:28:23.754Z,29.00
2019-04-25T11:30:54.172Z,28.80
2019-04-25T11:33:25.515Z,28.90
2019-04-25T11:35:56.306Z,28.90
2019-04-25T11:38:35.805Z,28.80
2019-04-25T11:41:15.344Z,28.60
2019-04-25T11:43:46.262Z,28.30
2019-04-25T11:46:17.100Z,28.20
2019-04-25T11:48:46.406Z,28.30
2019-04-25T11:51:16.028Z,28.40
2019-04-25T11:53:46.014Z,28.50
2019-04-25T11:56:15.447Z,28.50
2019-04-25T11:58:45.677Z,28.60
2019-04-25T12:01:16.404Z,28.50
2019-04-25T12:03:47.503Z,28.50
2019-04-25T12:06:15.824Z,28.60
2019-04-25T12:08:46.521Z,28.40
2019-04-25T12:11:15.231Z,28.30
2019-04-25T12:13:45.959Z,28.20
2019-04-25T12:16:16.920Z,28.20
2019-04-25T12:18:48.115Z,28.00
2019-04-25T12:21:16.337Z,27.80
2019-04-25T12:23:47.369Z,27.80
2019-04-25T12:26:15.859Z,27.70
2019-04-25T12:28:44.993Z,27.70
2019-04-25T12:31:15.484Z,27.70
2019-04-25T12:33:46.355Z,27.90
2019-04-25T12:36:14.904Z,27.80
2019-04-25T12:38:45.119Z,27.90
2019-04-25T12:41:14.323Z,28.00
2019-04-25T12:43:47.618Z,28.00
2019-04-25T12:46:26.958Z,28.00
2019-04-25T12:48:55.947Z,27.90
2019-04-25T12:51:24.833Z,27.90
2019-04-25T12:53:54.945Z,27.90
2019-04-25T12:56:24.760Z,27.90
2019-04-25T12:58:55.092Z,27.80
2019-04-25T13:01:24.853Z,27.90
2019-04-25T13:03:55.379Z,28.00
2019-04-25T13:06:24.941Z,28.00
2019-04-25T13:08:54.285Z,27.90
2019-04-25T13:11:25.005Z,28.00
2019-04-25T13:13:53.969Z,28.00
2019-04-25T13:16:24.312Z,28.00
2019-04-25T13:18:53.593Z,28.10
2019-04-25T13:21:23.445Z,28.10
2019-04-25T13:23:53.026Z,28.10
2019-04-25T13:26:24.864Z,28.00
2019-04-25T13:29:05.223Z,28.10
2019-04-25T13:32:04.995Z,28.10
2019-04-25T13:34:36.677Z,28.00
2019-04-25T13:37:08.789Z,27.90
2019-04-25T13:39:38.481Z,27.90
2019-04-25T13:42:09.112Z,27.80
2019-04-25T13:44:38.003Z,27.80
2019-04-25T13:47:07.495Z,27.80
2019-04-25T13:49:36.400Z,27.70
2019-04-25T13:52:06.416Z,27.60
2019-04-25T13:54:35.306Z,27.50
2019-04-25T13:57:04.201Z,27.40
2019-04-25T13:59:33.091Z,27.30
2019-04-25T14:02:04.090Z,27.20
2019-04-25T14:04:35.616Z,27.00
2019-04-25T14:07:04.471Z,26.90
2019-04-25T14:09:34.761Z,26.90
2019-04-25T14:12:06.758Z,26.80
2019-04-25T14:14:36.044Z,26.80
2019-04-25T14:17:25.777Z,26.80
2019-04-25T14:20:04.302Z,26.80
2019-04-25T14:22:33.759Z,26.90
2019-04-25T14:25:04.187Z,26.90
2019-04-25T14:27:34.065Z,26.80
2019-04-25T14:30:04.468Z,26.90
2019-04-25T14:32:33.946Z,26.90
2019-04-25T14:35:04.869Z,26.90
2019-04-25T14:37:39.441Z,26.90
2019-04-25T14:40:06.269Z,26.90
2019-04-25T14:42:35.330Z,27.00
2019-04-25T14:45:10.900Z,27.00
2019-04-25T14:47:39.871Z,26.90
2019-04-25T14:50:09.579Z,26.90
2019-04-25T14:52:38.672Z,26.80
2019-04-25T14:55:13.404Z,26.60
2019-04-25T14:57:42.499Z,26.50
2019-04-25T15:00:17.022Z,26.50
2019-04-25T15:02:45.907Z,26.40
2019-04-25T15:05:14.797Z,26.40
2019-04-25T15:07:43.694Z,26.30
2019-04-25T15:10:14.016Z,26.30
2019-04-25T15:12:42.910Z,26.30
2019-04-25T15:15:11.903Z,26.30
2019-04-25T15:17:46.349Z,26.20
2019-04-25T15:20:11.220Z,26.20
2019-04-25T15:22:40.111Z,26.20
2019-04-25T15:25:09.005Z,26.10
2019-04-25T15:27:37.995Z,26.10
2019-04-25T15:30:10.572Z,26.10
2019-04-25T15:32:39.463Z,26.10
2019-04-25T15:35:09.992Z,26.10
2019-04-25T15:37:43.596Z,26.00
2019-04-25T15:40:17.605Z,25.90
2019-04-25T15:42:53.964Z,25.90
2019-04-25T15:45:36.480Z,25.90
2019-04-25T15:48:07.628Z,25.90
2019-04-25T15:50:36.515Z,25.80
2019-04-25T15:53:05.405Z,25.80
2019-04-25T15:55:34.810Z,25.70
2019-04-25T15:58:04.513Z,25.70
2019-04-25T16:00:35.031Z,25.60
2019-04-25T16:03:06.268Z,25.50
2019-04-25T16:05:36.700Z,25.50
2019-04-25T16:08:07.147Z,25.50
2019-04-25T16:10:36.555Z,25.50
2019-04-25T16:13:07.693Z,25.40
2019-04-25T16:15:36.687Z,25.30
2019-04-25T16:18:07.217Z,25.30
2019-04-25T16:20:36.109Z,25.30
2019-04-25T16:23:06.609Z,25.20
2019-04-25T16:25:35.533Z,25.10
2019-04-25T16:28:05.141Z,25.10
2019-04-25T16:30:36.463Z,25.00
2019-04-25T16:33:07.116Z,25.00
2019-04-25T16:35:36.006Z,24.80
2019-04-25T16:38:05.931Z,24.80
2019-04-25T16:40:34.811Z,24.80
2019-04-25T16:43:05.989Z,24.70
2019-04-25T16:45:36.486Z,24.70
2019-04-25T16:48:05.375Z,24.70
2019-04-25T16:50:36.510Z,24.50
2019-04-25T16:53:06.945Z,24.50
2019-04-25T16:55:36.625Z,24.40
2019-04-25T16:58:07.743Z,24.30
2019-04-25T17:00:40.990Z,24.30
2019-04-25T17:03:10.189Z,24.20
2019-04-25T17:05:40.384Z,24.20
2019-04-25T17:08:10.941Z,24.00
2019-04-25T17:10:39.830Z,23.90
2019-04-25T17:13:10.257Z,23.90
2019-04-25T17:15:49.798Z,23.80
2019-04-25T17:18:23.501Z,23.80
2019-04-25T17:20:59.868Z,23.70
2019-04-25T17:23:28.906Z,23.70
2019-04-25T17:25:57.854Z,23.60
2019-04-25T17:28:27.868Z,23.50
2019-04-25T17:31:10.689Z,23.50
2019-04-25T17:33:53.608Z,23.40
2019-04-25T17:36:32.120Z,23.30
2019-04-25T17:39:11.102Z,23.20
2019-04-25T17:41:40.500Z,23.10
2019-04-25T17:44:09.992Z,23.00
2019-04-25T17:46:39.535Z,22.90
2019-04-25T17:49:08.497Z,22.80
2019-04-25T17:51:37.361Z,22.80
2019-04-25T17:54:06.634Z,22.70
2019-04-25T17:56:36.367Z,22.60
2019-04-25T17:59:05.232Z,22.60
2019-04-25T18:01:34.122Z,22.50
2019-04-25T18:04:03.047Z,22.40
2019-04-25T18:06:31.922Z,22.30
2019-04-25T18:09:00.918Z,22.30
2019-04-25T18:11:29.908Z,22.20
2019-04-25T18:13:58.904Z,22.10
2019-04-25T18:16:32.196Z,22.10
2019-04-25T18:19:08.664Z,22.00
2019-04-25T18:21:38.464Z,22.00
2019-04-25T18:24:09.537Z,21.90
2019-04-25T18:26:39.957Z,21.90
2019-04-25T18:29:16.541Z,21.80
2019-04-25T18:31:46.292Z,21.70
2019-04-25T18:34:16.742Z,21.60
2019-04-25T18:36:55.939Z,21.60
2019-04-25T18:39:35.403Z,21.50
2019-04-25T18:42:21.684Z,21.40
2019-04-25T18:44:50.529Z,21.40
2019-04-25T18:47:19.381Z,21.30
2019-04-25T18:49:48.261Z,21.30
2019-04-25T18:52:35.025Z,21.30
2019-04-25T18:55:15.286Z,21.20
2019-04-25T18:57:45.713Z,21.20
2019-04-25T19:00:16.324Z,21.10
2019-04-25T19:02:46.867Z,21.10
2019-04-25T19:05:35.109Z,21.00
2019-04-25T19:08:03.992Z,21.00
2019-04-25T19:10:32.887Z,21.00
2019-04-25T19:13:12.057Z,21.00
2019-04-25T19:15:32.254Z,20.90
2019-04-25T19:18:01.101Z,20.90
2019-04-25T19:20:30.071Z,20.80
2019-04-25T19:22:58.945Z,20.80
2019-04-25T19:25:27.788Z,20.80
2019-04-25T19:27:58.109Z,20.70
2019-04-25T19:30:27.264Z,20.70
2019-04-25T19:32:56.125Z,20.70
2019-04-25T19:35:24.968Z,20.70
2019-04-25T19:37:55.415Z,20.60
2019-04-25T19:40:25.832Z,20.60
2019-04-25T19:42:56.335Z,20.60
2019-04-25T19:45:25.212Z,20.50
2019-04-25T19:47:54.051Z,20.60
2019-04-25T19:50:22.939Z,20.50
2019-04-25T19:52:52.150Z,20.50
2019-04-25T19:55:21.012Z,20.40
2019-04-25T19:57:50.348Z,20.40
2019-04-25T20:00:19.716Z,20.40
2019-04-25T20:03:05.317Z,20.30
2019-04-25T20:05:36.423Z,20.30
2019-04-25T20:08:12.514Z,20.20
2019-04-25T20:10:43.764Z,20.20
2019-04-25T20:13:13.396Z,20.20
2019-04-25T20:15:44.055Z,20.20
2019-04-25T20:18:12.863Z,20.30
2019-04-25T20:20:41.692Z,20.20
2019-04-25T20:23:10.576Z,20.20
2019-04-25T20:25:39.420Z,20.20
2019-04-25T20:28:08.423Z,20.10
2019-04-25T20:30:37.361Z,20.20
2019-04-25T20:33:06.203Z,20.10
2019-04-25T20:35:35.066Z,20.00
2019-04-25T20:38:04.121Z,20.00
2019-04-25T20:40:32.954Z,20.00
2019-04-25T20:43:01.796Z,20.00
2019-04-25T20:45:30.679Z,19.90
2019-04-25T20:47:59.656Z,19.90
2019-04-25T20:50:28.499Z,19.80
2019-04-25T20:52:57.438Z,19.70
2019-04-25T20:55:26.430Z,19.50
2019-04-25T20:57:55.500Z,19.40
2019-04-25T21:00:40.383Z,19.20
2019-04-25T21:03:09.692Z,19.10
2019-04-25T21:05:39.241Z,19.00
2019-04-25T21:08:08.191Z,18.80
2019-04-25T21:10:37.081Z,18.70
2019-04-25T21:13:07.509Z,18.70
2019-04-25T21:15:50.703Z,18.60
2019-04-25T21:18:21.884Z,18.50
2019-04-25T21:20:51.823Z,18.40
2019-04-25T21:23:21.401Z,18.40
2019-04-25T21:25:51.463Z,18.30
2019-04-25T21:28:20.821Z,18.20
2019-04-25T21:30:51.276Z,18.20
2019-04-25T21:33:20.241Z,18.10
2019-04-25T21:35:50.865Z,18.10
2019-04-25T21:38:20.583Z,18.10
2019-04-25T21:40:51.328Z,18.00
2019-04-25T21:43:22.259Z,18.00
2019-04-25T21:45:51.907Z,18.00
2019-04-25T21:48:22.699Z,17.90
2019-04-25T21:50:53.494Z,17.90
2019-04-25T21:53:22.324Z,17.80
2019-04-25T21:55:53.173Z,17.80
2019-04-25T21:58:22.666Z,17.70
2019-04-25T22:00:58.067Z,17.70
2019-04-25T22:03:29.053Z,17.70
2019-04-25T22:05:58.694Z,17.60
2019-04-25T22:08:28.269Z,17.60
2019-04-25T22:10:57.297Z,17.60
2019-04-25T22:13:26.968Z,17.60
2019-04-25T22:15:56.434Z,17.60
2019-04-25T22:18:27.462Z,17.60
2019-04-25T22:20:56.893Z,17.50
2019-04-25T22:23:26.525Z,17.50
2019-04-25T22:25:56.460Z,17.40
2019-04-25T22:28:27.072Z,17.50
2019-04-25T22:30:59.176Z,17.40
2019-04-25T22:33:48.815Z,17.40
2019-04-25T22:36:29.072Z,17.30
2019-04-25T22:39:14.724Z,17.30
2019-04-25T22:41:47.213Z,17.20
2019-04-25T22:44:18.272Z,17.20
2019-04-25T22:46:48.085Z,17.20
2019-04-25T22:49:17.077Z,17.10
2019-04-25T22:51:45.968Z,17.00
2019-04-25T22:54:15.679Z,17.00
2019-04-25T22:56:44.570Z,16.90
2019-04-25T22:59:13.767Z,16.80
2019-04-25T23:01:44.297Z,16.80
2019-04-25T23:04:32.944Z,16.80
2019-04-25T23:07:02.568Z,16.70
2019-04-25T23:09:33.702Z,16.70
2019-04-25T23:12:05.050Z,16.70
2019-04-25T23:14:35.069Z,16.60
2019-04-25T23:17:04.988Z,16.60
2019-04-25T23:19:34.590Z,16.50
2019-04-25T23:22:04.760Z,16.50
2019-04-25T23:24:35.652Z,16.40
2019-04-25T23:27:07.958Z,16.40
2019-04-25T23:29:37.527Z,16.40
2019-04-25T23:32:08.773Z,16.40
2019-04-25T23:34:37.663Z,16.30
2019-04-25T23:37:07.143Z,16.40
2019-04-25T23:39:36.879Z,16.40
2019-04-25T23:42:06.062Z,16.40
2019-04-25T23:44:36.401Z,16.30
2019-04-25T23:47:06.873Z,16.40
2019-04-25T23:49:36.435Z,16.30
2019-04-25T23:52:07.289Z,16.30
2019-04-25T23:54:36.675Z,16.20
2019-04-25T23:57:07.071Z,16.20
2019-04-25T23:59:37.020Z,16.20
